Latest Weather Observations for Brisbane Airport

IDQ60901

Issued at 10:51 am EST Thursday 30 March 2017 (issued every 10 minutes, with the page automatically refreshed every 10 minutes)

About weather observations | Map of Brisbane area stations | Latest observations for Brisbane area | Other Formats
Station Details ID: 040842 Name: BRISBANE AERO Lat: -27.39 Lon: 153.13 Height: 4.51 m
Data from the previous 72 hours. | See also: Recent months at Brisbane Airport
Date/Time
EST
Temp
°C
App
Temp
°C
Dew
Point
°C
Rel
Hum
%
Delta-T
°C
Wind Press
QNH
hPa
Press
MSL
hPa
Rain since
9am
mm
Dir  Spd
km/h
Gust
km/h
Spd
kts
Gust
kts
30/10:30am 25.6 25.6 24.7 95 0.6 NE 33 43 18 23 1008.2 1008.2 13.8
30/10:00am 25.4 26.0 24.7 96 0.5 NNE 30 43 16 23 1008.9 1008.9 12.6
30/09:47am 25.0 25.0 24.4 96 0.4 NE 32 52 17 28 1009.2 1009.2 10.8
30/09:40am 24.6 25.3 24.3 98 0.2 NE 28 39 15 21 1008.7 1008.7 10.2
30/09:30am 24.1 22.4 23.7 98 0.3 NNE 39 59 21 32 1009.4 1009.4 5.4
30/09:25am 24.8 24.3 24.5 98 0.2 NE 35 59 19 32 1009.3 1009.3 2.8
30/09:00am 25.2 25.9 24.9 98 0.2 NNE 30 41 16 22 1009.6 1009.6 60.2
30/08:51am 24.9 25.0 24.6 98 0.2 NNE 32 44 17 24 1009.6 1009.6 59.6
30/08:30am 24.2 23.0 23.9 98 0.2 NNE 37 52 20 28 1009.8 1009.8 59.0
30/08:24am 24.9 25.0 24.6 98 0.2 NE 32 50 17 27 1009.7 1009.7 56.4
30/08:00am 23.9 25.8 23.8 99 0.1 NNE 20 32 11 17 1009.9 1009.9 55.0
30/07:39am 24.4 24.3 24.3 99 0.1 NNE 32 52 17 28 1010.3 1010.3 48.2
30/07:30am 24.1 24.2 24.0 99 0.1 NNE 30 39 16 21 1010.5 1010.5 45.2
30/07:25am 24.3 24.6 24.2 99 0.1 NNE 30 39 16 21 1010.3 1010.3 44.0
30/07:11am 24.3 24.1 24.3 100 0.0 NNE 33 61 18 33 1010.5 1010.5 37.4
30/07:07am 24.9 25.3 24.5 98 0.3 NE 30 41 16 22 1010.1 1010.1 34.0
30/07:00am 25.3 25.9 24.1 93 0.8 NE 28 37 15 20 1009.6 1009.6 31.8
30/06:30am 25.1 25.1 24.4 96 0.5 NE 32 41 17 22 1009.6 1009.6 29.8
30/06:25am 25.0 25.4 24.4 96 0.4 NE 30 41 16 22 1009.6 1009.6 29.6
30/06:00am 25.4 26.0 24.2 93 0.8 NE 28 37 15 20 1009.3 1009.3 25.6
30/05:30am 25.5 26.1 24.2 92 0.9 NE 28 39 15 21 1009.2 1009.2 23.2
30/05:23am 25.5 25.8 24.2 92 0.9 NE 30 48 16 26 1009.2 1009.2 22.8
30/05:00am 25.7 26.1 24.4 92 0.9 NE 30 41 16 22 1009.0 1009.0 21.8
30/04:30am 25.8 26.2 24.4 92 1.0 NNE 30 35 16 19 1009.0 1009.0 21.6
30/04:00am 25.8 25.6 24.4 92 1.0 NNE 33 50 18 27 1008.8 1008.8 21.6
30/03:30am 25.7 26.5 24.4 92 0.9 NNE 28 37 15 20 1008.9 1008.9 21.6
30/03:00am 25.7 26.5 24.4 92 0.9 NNE 28 39 15 21 1009.2 1009.2 21.4
30/02:30am 24.6 27.0 24.2 98 0.3 NNE 19 28 10 15 1009.5 1009.5 21.4
30/02:21am 23.1 25.8 22.8 98 0.2 NE 13 24 7 13 1009.8 1009.8 19.8
30/02:00am 22.6 24.3 22.3 98 0.2 NNE 17 24 9 13 1010.0 1010.0 19.4
30/01:30am 23.0 22.0 22.7 98 0.2 N 32 39 17 21 1011.0 1011.0 15.0
30/01:24am 23.1 22.2 22.8 98 0.2 N 32 43 17 23 1010.9 1010.9 13.8
30/01:14am 24.3 24.7 23.7 96 0.4 N 28 41 15 22 1011.0 1011.0 11.4
30/01:00am 24.4 25.3 24.0 98 0.3 N 26 32 14 17 1011.2 1011.2 9.6
30/12:44am 24.4 23.7 23.2 93 0.8 N 32 41 17 22 1011.6 1011.6 8.6
30/12:30am 24.8 23.9 23.9 95 0.6 NNE 35 46 19 25 1011.8 1011.8 8.0
30/12:12am 25.1 25.4 24.2 95 0.6 NNE 30 37 16 20 1011.6 1011.6 7.6
30/12:00am 24.8 24.7 24.2 96 0.4 NNE 32 44 17 24 1011.6 1011.6 7.0
 
Date/Time
EST
Temp
°C
App
Temp
°C
Dew
Point
°C
Rel
Hum
%
Delta-T
°C
Wind Press
QNH
hPa
Press
MSL
hPa
Rain since
9am
mm
Dir  Spd
km/h
Gust
km/h
Spd
kts
Gust
kts
29/11:30pm 25.3 26.1 24.4 95 0.6 NNE 28 41 15 22 1011.7 1011.7 4.0
29/11:24pm 25.5 26.6 24.3 93 0.8 NE 26 41 14 22 1011.8 1011.8 3.4
29/11:00pm 25.5 29.0 24.2 92 0.9 NE 13 19 7 10 1011.8 1011.8 3.4
29/10:30pm 25.2 28.3 23.6 91 1.1 NE 13 19 7 10 1012.2 1012.2 3.4
29/10:00pm 25.0 27.4 23.7 92 0.9 NNE 17 22 9 12 1011.9 1011.9 3.4
29/09:30pm 25.3 26.6 24.1 93 0.8 NNE 24 32 13 17 1012.5 1012.5 3.4
29/09:10pm 25.3 27.2 24.4 95 0.6 NNE 22 30 12 16 1012.6 1012.6 3.4
29/09:00pm 25.9 26.9 24.2 90 1.2 NNE 26 32 14 17 1012.6 1012.6 3.0
29/08:38pm 25.9 30.2 24.3 91 1.1 ENE 9 15 5 8 1012.7 1012.7 3.0
29/08:30pm 25.6 28.8 24.3 92 0.9 N 15 20 8 11 1012.8 1012.8 3.0
29/08:00pm 25.4 28.1 23.5 89 1.3 NE 15 19 8 10 1012.8 1012.8 3.0
29/07:30pm 25.4 27.4 23.0 86 1.6 NE 17 22 9 12 1012.5 1012.5 3.0
29/07:00pm 25.4 27.8 23.0 86 1.6 NE 15 20 8 11 1012.0 1012.0 3.0
29/06:30pm 25.4 28.5 24.1 92 0.9 ENE 15 22 8 12 1011.7 1011.7 3.0
29/06:00pm 25.4 28.0 23.9 91 1.0 NE 17 20 9 11 1012.4 1012.4 3.0
29/05:30pm 25.5 27.7 24.0 91 1.0 NE 19 28 10 15 1012.4 1012.4 3.0
29/05:00pm 25.4 28.5 24.1 92 0.9 NE 15 24 8 13 1012.0 1012.0 3.0
29/04:30pm 25.1 27.6 24.4 96 0.5 NE 19 26 10 14 1011.7 1011.7 3.0
29/04:00pm 25.3 26.6 24.1 93 0.8 NE 24 30 13 16 1011.7 1011.7 2.0
29/03:30pm 25.3 26.8 24.4 95 0.6 NE 24 37 13 20 1011.6 1011.6 2.0
29/03:00pm 26.0 28.5 24.7 92 0.9 NE 20 28 11 15 1011.7 1011.7 1.6
29/02:30pm 26.9 28.7 24.3 86 1.8 NE 22 33 12 18 1011.6 1011.6 1.4
29/02:00pm 28.1 32.0 25.4 85 1.9 NE 15 19 8 10 1011.7 1011.7 1.4
29/01:30pm 25.6 28.6 24.6 94 0.7 NNE 17 19 9 10 1012.2 1012.2 1.4
29/01:00pm 26.0 29.7 24.6 92 1.0 NNE 13 17 7 9 1012.5 1012.5 1.0
29/12:52pm 25.5 27.9 24.2 92 0.9 NNE 19 26 10 14 1012.6 1012.6 0.2
29/12:30pm 27.1 30.2 24.1 84 2.1 E 15 22 8 12 1012.9 1012.9 0.0
29/12:00pm 26.9 29.7 24.3 86 1.8 E 17 26 9 14 1013.4 1013.4 0.0
29/11:30am 27.6 30.7 23.5 78 2.8 E 13 22 7 12 1013.8 1013.8 0.0
29/11:00am 28.1 30.7 23.9 78 2.9 ENE 17 26 9 14 1014.2 1014.2 0.0
29/10:30am 28.2 31.1 24.5 80 2.6 ENE 17 24 9 13 1014.4 1014.4 0.0
29/10:00am 27.1 29.6 23.1 79 2.7 ENE 15 20 8 11 1014.5 1014.5 0.0
29/09:30am 27.0 29.2 23.9 83 2.1 NE 19 24 10 13 1014.6 1014.6 0.0
29/09:00am 26.4 30.6 24.1 87 1.6 ESE 9 15 5 8 1014.3 1014.3 0.6
29/08:30am 25.5 29.3 23.4 88 1.4 SE 9 15 5 8 1014.2 1014.2 0.0
29/08:00am 26.2 29.7 22.8 81 2.3 SE 9 15 5 8 1014.2 1014.2 0.0
29/07:30am 25.4 28.7 22.6 84 1.9 SE 9 13 5 7 1013.9 1013.9 0.0
29/07:00am 24.5 28.1 22.4 88 1.4 SSE 7 13 4 7 1013.8 1013.8 0.0
29/06:30am 23.9 27.4 21.9 88 1.3 SSE 6 7 3 4 1013.5 1013.5 0.0
29/06:00am 23.2 26.4 21.7 91 1.0 E 7 11 4 6 1013.2 1013.2 0.0
29/05:30am 23.3 26.2 21.8 91 1.0 E 9 13 5 7 1013.2 1013.2 0.0
29/05:00am 23.5 26.5 22.0 91 1.0 E 9 13 5 7 1012.9 1012.9 0.0
29/04:30am 24.6 27.7 22.2 86 1.6 E 9 15 5 8 1012.6 1012.6 0.0
29/04:00am 24.6 28.1 22.1 86 1.7 E 7 11 4 6 1012.6 1012.6 0.0
29/03:30am 24.8 28.0 22.3 86 1.7 E 9 11 5 6 1012.4 1012.4 0.0
29/03:00am 24.8 28.0 22.3 86 1.7 ENE 9 11 5 6 1012.3 1012.3 0.0
29/02:30am 25.1 27.7 22.0 83 2.1 ENE 11 15 6 8 1012.4 1012.4 0.0
29/02:00am 24.8 28.0 22.3 86 1.7 ENE 9 11 5 6 1012.6 1012.6 0.0
29/01:30am 24.9 28.0 22.2 85 1.8 ENE 9 13 5 7 1012.9 1012.9 0.0
29/01:00am 25.0 28.0 22.0 83 2.0 ENE 9 13 5 7 1013.2 1013.2 0.0
29/12:30am 24.9 27.9 21.9 83 2.0 ENE 9 13 5 7 1013.4 1013.4 0.0
29/12:00am 25.1 28.0 21.8 82 2.2 ENE 9 15 5 8 1013.6 1013.6 0.0
 
Date/Time
EST
Temp
°C
App
Temp
°C
Dew
Point
°C
Rel
Hum
%
Delta-T
°C
Wind Press
QNH
hPa
Press
MSL
hPa
Rain since
9am
mm
Dir  Spd
km/h
Gust
km/h
Spd
kts
Gust
kts
28/11:30pm 25.2 27.4 21.9 82 2.2 ENE 13 17 7 9 1013.7 1013.7 0.0
28/11:00pm 25.3 27.5 21.8 81 2.3 ENE 13 17 7 9 1013.8 1013.8 0.0
28/10:30pm 25.2 27.4 21.9 82 2.2 ENE 13 19 7 10 1014.0 1014.0 0.0
28/10:00pm 25.4 27.8 21.6 79 2.5 ENE 11 17 6 9 1014.1 1014.1 0.0
28/09:30pm 25.5 27.8 21.4 78 2.7 ENE 11 15 6 8 1014.1 1014.1 0.0
28/09:00pm 25.3 27.4 21.7 80 2.4 ENE 13 15 7 8 1014.3 1014.3 0.0
28/08:30pm 25.3 28.2 21.8 81 2.3 ENE 9 15 5 8 1013.9 1013.9 0.0
28/08:00pm 25.1 27.7 22.0 83 2.1 ENE 11 15 6 8 1013.7 1013.7 0.0
28/07:30pm 25.2 28.2 21.9 82 2.2 ENE 9 13 5 7 1013.3 1013.3 0.0
28/07:00pm 25.2 27.8 21.9 82 2.2 ENE 11 15 6 8 1013.0 1013.0 0.0
28/06:30pm 25.2 27.5 21.4 79 2.5 ENE 11 15 6 8 1012.8 1012.8 0.0
28/06:00pm 25.5 27.4 21.4 78 2.7 ENE 13 19 7 10 1012.7 1012.7 0.0
28/05:30pm 25.8 27.3 21.3 76 3.0 ENE 15 20 8 11 1012.4 1012.4 0.0
28/05:00pm 26.2 27.6 21.1 73 3.4 NE 15 22 8 12 1012.2 1012.2 0.0
28/04:30pm 26.9 27.9 20.2 66 4.4 NE 15 20 8 11 1011.9 1011.9 0.0
28/04:00pm 27.3 27.8 19.2 61 5.2 ENE 15 22 8 12 1011.8 1011.8 0.0
28/03:30pm 27.7 28.0 18.8 58 5.7 ENE 15 22 8 12 1011.9 1011.9 0.0
28/03:00pm 28.2 28.6 18.9 57 6.0 ENE 15 22 8 12 1011.9 1011.9 0.0
28/02:30pm 28.6 28.9 18.8 55 6.3 NE 15 20 8 11 1012.1 1012.1 0.0
28/02:00pm 28.5 28.2 19.1 56 6.1 NE 19 26 10 14 1012.2 1012.2 0.0
28/01:30pm 29.2 29.3 18.3 51 7.0 NE 15 20 8 11 1012.3 1012.3 0.0
28/01:00pm 28.5 28.0 16.8 49 7.3 NE 15 24 8 13 1012.7 1012.7 0.0
28/12:30pm 27.9 28.5 18.7 57 5.9 ENE 13 19 7 10 1013.1 1013.1 0.0
28/12:00pm 28.1 29.9 19.6 60 5.5 ENE 9 17 5 9 1013.4 1013.4 0.0
28/11:30am 27.4 28.9 19.7 63 5.0 E 11 19 6 10 1013.8 1013.8 0.0
28/11:00am 27.3 28.4 19.6 62 5.0 E 13 19 7 10 1014.2 1014.2 0.0
28/10:30am 27.2 29.4 20.3 66 4.5 SE 9 17 5 9 1014.5 1014.5 0.0
28/10:00am 26.7 28.4 20.1 67 4.3 SE 11 15 6 8 1014.7 1014.7 0.0
28/09:30am 26.0 27.9 20.5 71 3.6 SE 11 17 6 9 1014.8 1014.8 0.0
28/09:00am 26.4 28.8 20.8 71 3.7 E 9 17 5 9 1014.7 1014.7 0.0
28/08:30am 26.3 29.4 21.5 75 3.2 SSE 7 13 4 7 1014.7 1014.7 0.0
28/08:00am 25.4 28.5 21.0 76 2.9 SSE 6 9 3 5 1014.7 1014.7 0.0
28/07:30am 24.0 27.0 20.8 82 2.1 SSE 6 7 3 4 1014.2 1014.2 0.0
28/07:00am 22.7 25.1 20.9 89 1.2 SSW 9 11 5 6 1014.2 1014.2 0.0
28/06:30am 21.3 23.4 20.1 93 0.8 SSW 9 11 5 6 1013.6 1013.6 0.0
28/06:00am 21.5 23.2 20.1 92 0.9 SSW 11 13 6 7 1013.4 1013.4 0.0
28/05:30am 20.8 22.7 19.7 93 0.7 SSW 9 9 5 5 1012.8 1012.8 0.0
28/05:00am 21.0 23.0 19.9 93 0.7 SSW 9 11 5 6 1012.5 1012.5 0.0
28/04:30am 21.3 23.4 20.1 93 0.8 SSW 9 13 5 7 1012.4 1012.4 0.0
28/04:00am 21.8 24.5 20.6 93 0.8 SE 7 9 4 5 1012.2 1012.2 0.0
28/03:30am 22.2 24.7 20.3 89 1.2 NE 7 11 4 6 1012.2 1012.2 0.0
28/03:00am 23.4 25.9 20.2 82 2.1 ENE 7 9 4 5 1012.3 1012.3 0.0
28/02:30am 23.0 25.1 20.2 84 1.8 NE 9 13 5 7 1012.5 1012.5 0.0
28/02:00am 24.2 26.7 20.2 78 2.6 NE 7 11 4 6 1012.9 1012.9 0.0
28/01:30am 24.3 27.3 20.0 77 2.8 E 4 7 2 4 1013.4 1013.4 0.0
28/01:00am 24.3 25.8 19.8 76 2.9 ENE 11 15 6 8 1013.4 1013.4 0.0
28/12:30am 24.7 25.9 19.9 74 3.1 NE 13 17 7 9 1013.7 1013.7 0.0
28/12:00am 24.8 26.0 20.0 74 3.1 ENE 13 17 7 9 1014.2 1014.2 0.0
 
Date/Time
EST
Temp
°C
App
Temp
°C
Dew
Point
°C
Rel
Hum
%
Delta-T
°C
Wind Press
QNH
hPa
Press
MSL
hPa
Rain since
9am
mm
Dir  Spd
km/h
Gust
km/h
Spd
kts
Gust
kts
27/11:30pm 24.7 26.5 20.4 77 2.8 ENE 11 13 6 7 1014.4 1014.4 0.0
27/11:00pm 24.6 26.7 20.1 76 2.9 ENE 9 11 5 6 1014.8 1014.8 0.0
27/10:30pm 24.4 26.7 20.6 79 2.5 ENE 9 13 5 7 1015.0 1015.0 0.0
27/10:00pm 24.5 26.5 20.8 80 2.4 NE 11 17 6 9 1015.1 1015.1 0.0
27/09:30pm 24.5 26.7 20.5 78 2.6 ENE 9 15 5 8 1015.0 1015.0 0.0
27/09:00pm 24.5 26.7 20.5 78 2.6 E 9 13 5 7 1015.2 1015.2 0.0
27/08:30pm 24.6 26.9 20.6 78 2.6 E 9 15 5 8 1015.2 1015.2 0.0
27/08:00pm 24.5 26.3 20.3 77 2.7 E 11 15 6 8 1015.0 1015.0 0.0
27/07:30pm 24.5 26.3 20.3 77 2.7 E 11 13 6 7 1014.6 1014.6 0.0
27/07:00pm 24.7 26.8 20.2 76 2.9 E 9 15 5 8 1014.3 1014.3 0.0
27/06:30pm 24.9 26.6 20.1 74 3.1 E 11 15 6 8 1014.1 1014.1 0.0
27/06:00pm 25.1 26.3 20.0 73 3.3 ENE 13 19 7 10 1013.6 1013.6 0.0
27/05:30pm 25.4 26.4 20.2 73 3.4 ENE 15 20 8 11 1013.3 1013.3 0.0
27/05:00pm 25.7 26.3 20.3 72 3.5 ENE 17 28 9 15 1013.1 1013.1 0.0
27/04:30pm 26.2 26.9 20.4 70 3.8 ENE 17 24 9 13 1013.0 1013.0 0.0
27/04:00pm 26.6 27.1 20.0 67 4.3 E 17 30 9 16 1012.9 1012.9 0.0
27/03:30pm 27.1 27.3 20.2 66 4.5 ENE 19 32 10 17 1012.9 1012.9 0.0
27/03:00pm 26.8 27.3 20.1 66 4.4 E 17 26 9 14 1013.0 1013.0 0.0
27/02:30pm 27.5 28.0 20.0 63 4.9 E 17 22 9 12 1013.1 1013.1 0.0
27/02:00pm 27.1 27.5 20.7 68 4.2 E 19 30 10 16 1013.4 1013.4 0.0
27/01:30pm 27.6 28.4 20.6 65 4.6 E 17 28 9 15 1013.6 1013.6 0.0
27/01:00pm 27.8 28.0 20.2 63 5.0 ESE 19 28 10 15 1013.9 1013.9 0.0
27/12:30pm 27.7 28.0 19.7 61 5.2 ESE 17 26 9 14 1014.3 1014.3 0.0
27/12:00pm 28.3 29.1 20.6 63 5.1 ESE 17 26 9 14 1014.7 1014.7 0.0
27/11:30am 27.8 28.7 20.0 62 5.1 ESE 15 26 8 14 1015.1 1015.1 0.0
27/11:00am 27.6 28.4 20.6 65 4.6 ESE 17 28 9 15 1015.5 1015.5 0.0

Latest Capital City Observations: Canberra | Sydney | Melbourne | Brisbane | Adelaide | Perth | Hobart | Darwin

Other Formats:

Comma delimited format used in spreadsheet applications
http://www.bom.gov.au/fwo/IDQ60901/IDQ60901.94578.axf

JavaScript Object Notation format (JSON) in row-major order
http://www.bom.gov.au/fwo/IDQ60901/IDQ60901.94578.json